Terminal Aerodrome Forecast
Issued by NWS

Home | Current Version | Previous Version | Text Only | Print | Product List | Glossary On
Versions: 1 2 3 4 5 6 7 8 9 10 11 12 13 14 15
610
FTUS46 KSEW 191310 AAA
TAFOLM
TAF AMD
KOLM 191310Z 1913/2012 16006KT 4SM -RA BR SCT006 BKN025 OVC060
     FM191500 20008KT P6SM -RA SCT030 OVC070
     FM191800 19010KT P6SM -SHRA BKN020 OVC060=

USA.gov is the U.S. government's official web portal to all federal, state and local government web resources and services.